Time;durP1;ratioP1;P1;durP2;ratioP2;P2;SDS_P1;SDS_P2;PMS_P1;PMS_P2;Temp;Humidity;BMP_temperature;BMP_pressure;BME280_temperature;BME280_humidity;BME280_pressure;Samples;Min_cycle;Max_cycle;Signal;HPM_P1;HPM_P2
2021/11/27 00:02:26;;;;;;;18.23;7.45;;;;;;;3.63;81.19;97505.56;5113670;28;20430;-66
2021/11/27 00:05:00;;;;;;;16.02;6.93;;;;;;;3.53;80.79;97498.91;5113734;28;20052;-64
2021/11/27 00:07:33;;;;;;;16.85;7.47;;;;;;;3.56;81.30;97503.94;5114047;28;20062;-65
2021/11/27 00:10:10;;;;;;;16.95;8.23;;;;;;;3.57;81.15;97494.69;5113565;28;20493;-67
2021/11/27 00:12:43;;;;;;;14.93;7.40;;;;;;;3.60;80.55;97500.53;5113923;28;20048;-68
2021/11/27 00:15:16;;;;;;;18.92;8.10;;;;;;;3.60;80.21;97490.44;5113598;28;20473;-68
2021/11/27 00:17:48;;;;;;;16.65;8.02;;;;;;;3.56;80.32;97488.81;5115404;28;20071;-68
2021/11/27 00:20:25;;;;;;;15.73;7.47;;;;;;;3.54;80.11;97510.69;5116602;28;20070;-66
2021/11/27 00:22:57;;;;;;;17.35;7.95;;;;;;;3.54;80.96;97509.84;5117757;28;20051;-68
2021/11/27 00:25:30;;;;;;;15.90;7.25;;;;;;;3.58;80.06;97511.47;5117397;28;20051;-68
2021/11/27 00:28:03;;;;;;;19.58;7.80;;;;;;;3.57;80.45;97508.13;5117374;28;20051;-68
2021/11/27 00:30:37;;;;;;;16.27;8.43;;;;;;;3.56;80.62;97524.09;5117559;27;20054;-66
2021/11/27 00:33:10;;;;;;;17.15;8.05;;;;;;;3.60;80.61;97533.31;5117234;28;20503;-68
2021/11/27 00:35:43;;;;;;;16.73;8.60;;;;;;;3.59;80.37;97525.75;5117503;28;20075;-68
2021/11/27 00:38:16;;;;;;;17.15;7.93;;;;;;;3.54;81.02;97517.41;5117259;28;20131;-68
2021/11/27 00:40:50;;;;;;;18.17;8.50;;;;;;;3.64;81.07;97517.31;5117100;28;20054;-66
2021/11/27 00:43:22;;;;;;;17.92;8.20;;;;;;;3.67;80.37;97517.28;5117101;28;20130;-66
2021/11/27 00:45:55;;;;;;;18.75;8.05;;;;;;;3.70;80.88;97526.50;5117045;28;20055;-67
2021/11/27 00:48:28;;;;;;;16.98;7.63;;;;;;;3.72;80.45;97543.28;5117283;28;20039;-66
2021/11/27 00:51:04;;;;;;;20.63;8.50;;;;;;;3.73;80.25;97556.75;5117147;28;20557;-67
2021/11/27 00:53:37;;;;;;;21.45;9.38;;;;;;;3.58;80.67;97572.00;5116861;28;20131;-67
2021/11/27 00:56:08;;;;;;;21.63;9.07;;;;;;;3.55;80.92;97577.88;5115636;28;20067;-67
2021/11/27 00:58:41;;;;;;;20.10;8.45;;;;;;;3.49;80.76;97577.94;5116678;28;20043;-68
2021/11/27 01:01:15;;;;;;;20.27;9.27;;;;;;;3.56;80.90;97579.56;5115715;28;20048;-66
2021/11/27 01:03:47;;;;;;;20.42;8.80;;;;;;;3.60;80.24;97586.25;5116669;28;20052;-68
2021/11/27 01:06:20;;;;;;;21.15;9.32;;;;;;;3.55;80.39;97585.44;5116894;28;20048;-65
2021/11/27 01:08:55;;;;;;;23.33;10.23;;;;;;;3.59;80.32;97581.25;5116879;28;20139;-64
2021/11/27 01:11:29;;;;;;;18.90;8.45;;;;;;;3.68;81.26;97594.63;5116477;28;20051;-64
2021/11/27 01:14:05;;;;;;;21.77;10.02;;;;;;;3.72;80.02;97588.69;5116854;28;20114;-65
2021/11/27 01:16:40;;;;;;;22.58;9.88;;;;;;;3.77;80.80;97584.44;5116726;28;20447;-68
2021/11/27 01:19:13;;;;;;;22.48;9.68;;;;;;;3.78;80.74;97586.16;5115687;28;20485;-68
2021/11/27 01:21:53;;;;;;;22.70;9.73;;;;;;;3.78;80.02;97576.06;5116741;28;20047;-67
2021/11/27 01:24:26;;;;;;;20.08;9.63;;;;;;;3.82;80.03;97572.66;5116618;28;20036;-65
2021/11/27 01:27:00;;;;;;;20.70;9.68;;;;;;;3.79;79.71;97561.75;5116232;28;20075;-65
2021/11/27 01:29:41;;;;;;;20.98;8.63;;;;;;;3.79;79.91;97567.63;5115698;28;20043;-65
2021/11/27 01:32:16;;;;;;;20.73;9.40;;;;;;;3.71;79.68;97564.34;5114903;28;20051;-65
2021/11/27 01:34:49;;;;;;;18.92;8.60;;;;;;;3.70;80.01;97561.81;5116090;27;20074;-65
2021/11/27 01:37:22;;;;;;;22.13;9.68;;;;;;;3.47;79.36;97566.19;5116305;28;20123;-65
2021/11/27 01:39:55;;;;;;;22.02;10.25;;;;;;;3.36;79.88;97563.72;5115105;28;20390;-64
2021/11/27 01:42:28;;;;;;;22.20;9.35;;;;;;;3.24;80.09;97571.38;5115894;28;20050;-68
2021/11/27 01:45:02;;;;;;;22.08;9.15;;;;;;;3.10;79.87;97583.22;5114683;28;20131;-67
2021/11/27 01:47:34;;;;;;;21.63;9.93;;;;;;;2.98;79.45;97588.31;5114867;28;20138;-67
2021/11/27 01:50:11;;;;;;;24.38;9.88;;;;;;;3.03;79.99;97591.66;5114757;28;20142;-67
2021/11/27 01:52:45;;;;;;;25.95;9.77;;;;;;;2.99;80.29;97585.81;5115724;28;20138;-67
2021/11/27 01:55:20;;;;;;;24.52;10.77;;;;;;;2.99;80.05;97584.97;5115973;28;20490;-64
2021/11/27 01:57:53;;;;;;;23.55;10.50;;;;;;;2.98;80.99;97568.16;5115562;28;20040;-66
2021/11/27 02:00:30;;;;;;;27.42;11.05;;;;;;;3.09;81.10;97568.97;5114589;28;20104;-65
2021/11/27 02:03:04;;;;;;;25.48;11.15;;;;;;;3.04;80.70;97578.22;5115474;28;20101;-65
2021/11/27 02:05:59;;;;;;;27.30;11.10;;;;;;;3.13;81.30;97568.94;5115067;27;20048;-67
2021/11/27 02:08:34;;;;;;;32.00;11.25;;;;;;;3.19;80.63;97563.84;5115399;28;20089;-66
2021/11/27 02:11:08;;;;;;;30.88;12.43;;;;;;;3.30;81.38;97552.03;5115368;28;20054;-67
2021/11/27 02:13:44;;;;;;;27.85;10.55;;;;;;;3.39;81.52;97546.94;5114162;28;20059;-65
2021/11/27 02:16:15;;;;;;;25.67;10.45;;;;;;;3.42;81.01;97553.63;5115561;28;20568;-64
2021/11/27 02:18:46;;;;;;;36.90;12.40;;;;;;;3.28;81.14;97540.28;5113337;28;20040;-66
2021/11/27 02:21:19;;;;;;;31.33;12.73;;;;;;;3.28;80.92;97532.72;5115491;28;20082;-66
2021/11/27 02:23:53;;;;;;;27.38;11.07;;;;;;;3.12;80.19;97526.13;5115537;28;20540;-65
2021/11/27 02:26:24;;;;;;;30.35;11.48;;;;;;;2.94;80.50;97522.00;5115074;28;20059;-64
2021/11/27 02:29:02;;;;;;;22.58;11.07;;;;;;;2.85;81.03;97531.31;5115332;28;20139;-64
2021/11/27 02:31:35;;;;;;;27.92;11.25;;;;;;;2.72;80.30;97540.59;5115259;28;20542;-65
2021/11/27 02:34:09;;;;;;;29.95;11.35;;;;;;;2.70;80.65;97538.09;5113700;28;20051;-66
2021/11/27 02:36:47;;;;;;;22.20;9.30;;;;;;;2.56;80.75;97534.81;5115188;28;20051;-66
2021/11/27 02:39:22;;;;;;;27.85;11.45;;;;;;;2.52;80.02;97537.34;5114688;28;20089;-67
2021/11/27 02:41:55;;;;;;;27.00;9.73;;;;;;;2.28;79.93;97537.41;5114602;28;20044;-68
2021/11/27 02:44:32;;;;;;;23.35;9.73;;;;;;;2.31;80.58;97533.19;5114944;28;20439;-65
2021/11/27 02:47:05;;;;;;;25.90;10.18;;;;;;;2.14;80.77;97537.44;5114700;28;20051;-65
2021/11/27 02:49:37;;;;;;;25.15;11.45;;;;;;;2.16;80.41;97533.22;5114970;28;20051;-64
2021/11/27 02:52:11;;;;;;;25.63;9.82;;;;;;;2.12;80.80;97536.59;5113428;28;20046;-64
2021/11/27 02:54:44;;;;;;;23.23;9.73;;;;;;;2.08;80.09;97527.41;5114804;28;20052;-64
2021/11/27 02:57:16;;;;;;;25.52;10.05;;;;;;;1.93;80.04;97534.97;5113337;28;20051;-64
2021/11/27 02:59:46;;;;;;;26.10;10.93;;;;;;;1.91;80.77;97551.72;5114770;28;20063;-64
2021/11/27 03:02:16;;;;;;;25.70;9.98;;;;;;;1.90;80.77;97545.00;5114470;28;20481;-64
2021/11/27 03:04:49;;;;;;;25.08;10.80;;;;;;;1.84;80.77;97519.91;5114327;28;20126;-65
2021/11/27 03:07:23;;;;;;;25.65;11.02;;;;;;;2.08;80.89;97537.47;5114399;28;20082;-64
2021/11/27 03:09:56;;;;;;;29.50;11.23;;;;;;;2.08;80.83;97549.19;5114639;28;20151;-64
2021/11/27 03:12:29;;;;;;;30.33;11.63;;;;;;;2.05;80.33;97539.97;5114616;28;20055;-64
2021/11/27 03:15:01;;;;;;;27.50;10.82;;;;;;;1.95;80.21;97558.44;5114981;28;20438;-64
2021/11/27 03:17:30;;;;;;;28.90;11.52;;;;;;;1.89;80.45;97563.47;5113119;28;20412;-64
2021/11/27 03:20:04;;;;;;;29.30;11.20;;;;;;;1.83;81.21;97561.78;5112006;28;20073;-64
2021/11/27 03:22:37;;;;;;;33.05;12.52;;;;;;;1.83;81.31;97563.47;5114485;28;20138;-64
2021/11/27 03:25:10;;;;;;;29.27;11.18;;;;;;;1.74;81.25;97550.91;5114087;28;20515;-65
2021/11/27 03:27:44;;;;;;;33.17;12.85;;;;;;;1.91;82.27;97571.84;5114443;28;20146;-64
2021/11/27 03:30:20;;;;;;;31.52;12.25;;;;;;;2.03;81.59;97572.69;5114380;28;20048;-64
2021/11/27 03:32:58;;;;;;;29.40;11.20;;;;;;;2.11;82.45;97577.72;5113195;28;20047;-64
2021/11/27 03:35:31;;;;;;;32.03;12.07;;;;;;;2.11;82.17;97581.91;5114294;28;20416;-64
2021/11/27 03:38:08;;;;;;;31.77;12.70;;;;;;;2.07;81.29;97573.50;5112797;28;20039;-64
2021/11/27 03:40:42;;;;;;;29.98;10.85;;;;;;;1.88;82.00;97569.34;5112753;28;20083;-64
2021/11/27 03:43:15;;;;;;;24.63;10.13;;;;;;;1.93;81.71;97570.16;5114279;28;20071;-64
2021/11/27 03:45:49;;;;;;;31.10;11.98;;;;;;;2.07;82.36;97568.47;5113840;28;20075;-67
2021/11/27 03:48:28;;;;;;;30.00;11.85;;;;;;;2.06;82.12;97571.84;5112970;28;20481;-68
2021/11/27 03:51:22;;;;;;;29.02;11.23;;;;;;;1.69;82.13;97580.22;5114822;28;20043;-68
2021/11/27 03:53:56;;;;;;;31.92;12.52;;;;;;;1.66;82.39;97581.06;5118051;28;20085;-68
2021/11/27 03:56:29;;;;;;;32.33;12.38;;;;;;;1.72;82.61;97590.28;5117941;28;20126;-67
2021/11/27 03:59:05;;;;;;;31.13;12.15;;;;;;;1.76;82.16;97591.97;5116688;28;20078;-68
2021/11/27 04:01:37;;;;;;;32.28;11.85;;;;;;;1.80;82.61;97596.16;5118137;28;20505;-68
2021/11/27 04:04:10;;;;;;;30.70;11.40;;;;;;;1.89;81.96;97598.69;5117871;27;20040;-68
2021/11/27 04:06:42;;;;;;;32.05;12.48;;;;;;;2.04;82.05;97593.63;5117696;28;20408;-64
2021/11/27 04:09:17;;;;;;;32.55;11.82;;;;;;;2.03;82.37;97586.94;5117721;27;20055;-64
2021/11/27 04:11:49;;;;;;;33.03;11.55;;;;;;;2.02;82.36;97590.28;5117675;28;20075;-64
2021/11/27 04:14:32;;;;;;;26.20;10.32;;;;;;;1.77;82.04;97591.97;5116409;28;20043;-64
2021/11/27 04:17:05;;;;;;;31.45;12.23;;;;;;;1.76;82.05;97592.81;5116709;28;20400;-67
2021/11/27 04:19:38;;;;;;;29.10;11.75;;;;;;;1.81;82.21;97600.34;5115441;28;20058;-68
2021/11/27 04:22:14;;;;;;;30.90;12.73;;;;;;;1.79;81.88;97590.31;5117490;28;20047;-64
2021/11/27 04:25:05;;;;;;;31.25;10.50;;;;;;;1.78;81.90;97592.78;5116562;28;20085;-64
2021/11/27 04:27:39;;;;;;;26.77;10.65;;;;;;;1.73;81.92;97594.47;5116493;28;20122;-64
2021/11/27 04:30:15;;;;;;;29.92;11.27;;;;;;;1.74;82.39;97598.66;5116456;28;20036;-64
2021/11/27 04:32:49;;;;;;;31.95;11.77;;;;;;;1.80;81.83;97591.97;5117587;28;20051;-64
2021/11/27 04:35:30;;;;;;;28.40;11.00;;;;;;;1.74;81.40;97603.69;5116292;28;20500;-65
2021/11/27 04:38:04;;;;;;;30.77;11.85;;;;;;;1.66;82.42;97608.72;5115994;28;20130;-67
2021/11/27 04:40:38;;;;;;;33.85;12.98;;;;;;;1.62;82.50;97612.06;5117116;28;20451;-68
2021/11/27 04:43:10;;;;;;;29.20;11.70;;;;;;;1.71;82.61;97612.06;5117684;28;20058;-68
2021/11/27 04:45:43;;;;;;;32.33;12.27;;;;;;;1.63;81.69;97613.72;5117342;28;20454;-68
2021/11/27 04:48:17;;;;;;;31.17;11.68;;;;;;;1.49;82.38;97622.13;5116113;28;20423;-65
2021/11/27 04:50:52;;;;;;;31.95;12.18;;;;;;;1.50;82.49;97628.81;5116049;28;20065;-65
2021/11/27 04:53:26;;;;;;;34.40;12.38;;;;;;;1.49;82.64;97622.13;5115725;28;20047;-65
2021/11/27 04:56:00;;;;;;;25.23;10.88;;;;;;;1.33;82.44;97614.53;5117189;28;20044;-65
2021/11/27 04:58:34;;;;;;;32.05;10.93;;;;;;;1.33;82.54;97617.06;5115933;28;20378;-68
2021/11/27 05:01:09;;;;;;;33.15;13.70;;;;;;;1.32;82.16;97620.41;5116778;28;20050;-68
2021/11/27 05:03:57;;;;;;;37.55;12.52;;;;;;;1.38;82.52;97628.78;5114628;28;20043;-68
2021/11/27 05:06:27;;;;;;;30.30;10.80;;;;;;;1.34;82.73;97632.97;5116518;28;20058;-65
2021/11/27 05:09:00;;;;;;;35.00;13.60;;;;;;;1.26;82.13;97635.47;5115720;28;20100;-67
2021/11/27 05:11:31;;;;;;;30.55;12.25;;;;;;;1.22;82.34;97628.72;5116569;28;20092;-68
2021/11/27 05:14:03;;;;;;;30.02;11.93;;;;;;;1.17;82.46;97632.94;5115344;28;20093;-65
2021/11/27 05:16:33;;;;;;;31.88;12.20;;;;;;;1.12;82.81;97634.59;5115520;28;20134;-66
2021/11/27 05:19:09;;;;;;;32.10;12.40;;;;;;;1.14;82.89;97645.47;5116640;28;20027;-69
2021/11/27 05:22:02;;;;;;;28.83;10.93;;;;;;;1.06;83.05;97642.09;5135252;27;20062;-65
2021/11/27 05:24:31;;;;;;;31.85;11.48;;;;;;;1.10;82.61;97638.78;5135253;27;20077;-64
2021/11/27 05:27:17;;;;;;;24.05;9.65;;;;;;;1.15;82.61;97637.09;5134775;27;20058;-67
2021/11/27 05:30:16;;;;;;;33.25;11.27;;;;;;;1.16;81.99;97631.25;5134651;27;20039;-64
2021/11/27 05:35:52;;;;;;;31.20;12.25;;;;;;;1.00;82.77;97651.28;5134515;27;20047;-65
2021/11/27 05:38:24;;;;;;;31.83;11.75;;;;;;;0.98;82.21;97656.31;5134468;27;20126;-65
2021/11/27 05:40:58;;;;;;;35.55;14.23;;;;;;;1.15;82.73;97651.34;5134596;27;20039;-68
2021/11/27 05:43:34;;;;;;;39.95;14.05;;;;;;;1.22;82.56;97661.38;5134444;27;20134;-68
2021/11/27 05:46:07;;;;;;;32.58;12.65;;;;;;;1.22;82.91;97651.34;5117341;27;20536;-68
2021/11/27 05:48:39;;;;;;;35.80;12.45;;;;;;;1.16;82.98;97658.88;5134575;27;20049;-68
2021/11/27 05:51:23;;;;;;;30.25;12.00;;;;;;;1.11;83.25;97659.69;5134268;27;20039;-69
2021/11/27 05:53:55;;;;;;;29.73;11.55;;;;;;;1.09;83.05;97647.13;5134379;27;20057;-64
2021/11/27 05:56:27;;;;;;;35.65;11.90;;;;;;;1.04;82.57;97653.81;5134203;27;20548;-68
2021/11/27 05:59:01;;;;;;;32.67;12.02;;;;;;;1.18;83.36;97657.19;5129917;27;20058;-65
2021/11/27 06:01:33;;;;;;;31.10;11.57;;;;;;;1.23;82.97;97658.06;5115502;28;20095;-68
2021/11/27 06:04:06;;;;;;;31.73;11.98;;;;;;;1.21;82.75;97657.22;5115552;28;20050;-68
2021/11/27 06:06:36;;;;;;;27.23;10.85;;;;;;;1.19;82.43;97648.84;5115794;28;20439;-68
2021/11/27 06:09:08;;;;;;;32.42;10.95;;;;;;;1.16;82.63;97658.03;5115341;28;20044;-68
2021/11/27 06:11:38;;;;;;;30.67;11.40;;;;;;;1.18;82.64;97659.72;5115396;28;20131;-64
2021/11/27 06:14:11;;;;;;;25.65;10.18;;;;;;;1.24;82.16;97657.22;5115336;28;20650;-65
2021/11/27 06:16:41;;;;;;;30.77;11.88;;;;;;;1.45;82.57;97680.72;5115504;28;20096;-64
2021/11/27 06:19:16;;;;;;;33.22;12.32;;;;;;;1.45;81.97;97688.25;5114347;28;20051;-64
2021/11/27 06:21:45;;;;;;;33.65;12.55;;;;;;;1.34;82.58;97693.28;5114991;28;20485;-67
2021/11/27 06:24:18;;;;;;;30.17;10.55;;;;;;;1.33;82.50;97711.69;5115126;27;20069;-64
2021/11/27 06:26:47;;;;;;;33.38;11.27;;;;;;;1.20;82.12;97715.81;5115032;28;20047;-68
2021/11/27 06:29:22;;;;;;;28.73;12.90;;;;;;;1.17;82.69;97720.84;5115316;28;20047;-68
2021/11/27 06:31:51;;;;;;;29.50;11.13;;;;;;;1.28;82.90;97719.19;5115270;28;20379;-64
2021/11/27 06:34:24;;;;;;;26.85;10.93;;;;;;;1.32;82.72;97715.84;5115110;28;20035;-66
2021/11/27 06:36:56;;;;;;;28.38;10.70;;;;;;;1.28;81.96;97720.88;5114840;28;20051;-65
2021/11/27 06:39:29;;;;;;;26.67;10.13;;;;;;;1.13;81.77;97719.13;5115099;28;20399;-68
2021/11/27 06:42:01;;;;;;;26.83;10.35;;;;;;;1.16;82.61;97719.16;5114959;28;20138;-64
2021/11/27 06:44:58;;;;;;;23.05;10.55;;;;;;;1.22;82.41;97708.28;5110271;28;20558;-68
2021/11/27 06:47:44;;;;;;;26.13;9.00;;;;;;;1.15;82.40;97707.41;5114872;28;20036;-67
2021/11/27 06:50:17;;;;;;;26.52;10.55;;;;;;;1.10;81.80;97704.06;5114679;28;20039;-65
2021/11/27 06:52:49;;;;;;;27.20;10.68;;;;;;;1.19;82.63;97714.16;5114890;28;20039;-64
2021/11/27 06:55:18;;;;;;;29.15;11.02;;;;;;;1.29;82.28;97708.34;5114479;28;20047;-69
2021/11/27 06:57:52;;;;;;;26.63;10.38;;;;;;;1.46;82.34;97707.53;5113317;28;20066;-70
2021/11/27 07:00:22;;;;;;;30.98;10.35;;;;;;;1.52;82.21;97727.66;5114220;28;20047;-66
2021/11/27 07:03:05;;;;;;;30.15;12.25;;;;;;;1.50;82.35;97735.19;5114733;28;20035;-70
2021/11/27 07:05:49;;;;;;;29.58;10.70;;;;;;;1.44;82.31;97744.41;5114329;28;20050;-66
2021/11/27 07:08:22;;;;;;;21.17;8.90;;;;;;;1.47;81.98;97746.91;5113634;28;20114;-69
2021/11/27 07:11:09;;;;;;;25.17;10.57;;;;;;;1.45;82.40;97746.06;5114343;28;20047;-67
2021/11/27 07:13:42;;;;;;;29.40;10.48;;;;;;;1.44;82.31;97749.41;5114475;28;20055;-68
2021/11/27 07:16:16;;;;;;;28.48;11.20;;;;;;;1.54;81.96;97746.09;5114269;28;20082;-66
2021/11/27 07:18:48;;;;;;;24.77;11.00;;;;;;;1.65;82.41;97749.50;5114487;28;20097;-65
2021/11/27 07:21:18;;;;;;;26.98;10.98;;;;;;;1.75;82.48;97761.25;5114208;28;20051;-69
2021/11/27 07:23:50;;;;;;;30.35;12.23;;;;;;;1.71;82.49;97769.59;5114103;28;20051;-69
2021/11/27 07:26:23;;;;;;;22.58;10.93;;;;;;;1.73;82.13;97767.94;5114168;28;20142;-69
2021/11/27 07:29:00;;;;;;;29.00;10.63;;;;;;;1.83;82.53;97769.63;5114027;28;20056;-69
2021/11/27 07:31:33;;;;;;;27.42;10.13;;;;;;;1.91;81.76;97758.78;5113992;28;20057;-67
2021/11/27 07:34:06;;;;;;;25.52;10.60;;;;;;;1.93;82.21;97771.34;5114283;28;20453;-67
2021/11/27 07:36:38;;;;;;;26.08;10.45;;;;;;;2.00;82.25;97788.97;5114307;28;20088;-68
2021/11/27 07:39:11;;;;;;;30.17;11.15;;;;;;;2.10;82.72;97781.44;5114288;28;20050;-67
2021/11/27 07:41:41;;;;;;;25.17;10.75;;;;;;;2.08;81.87;97780.59;5113866;28;20047;-66
2021/11/27 07:44:19;;;;;;;27.55;10.85;;;;;;;2.02;82.36;97794.00;5113908;28;20381;-64
2021/11/27 07:47:12;;;;;;;28.73;11.70;;;;;;;1.91;82.11;97798.16;5113687;28;20572;-66
2021/11/27 07:49:56;;;;;;;31.00;12.02;;;;;;;1.97;82.04;97798.16;5113790;28;20043;-64
2021/11/27 07:52:39;;;;;;;26.85;10.70;;;;;;;2.11;82.62;97799.06;5113801;28;20044;-64
2021/11/27 07:55:12;;;;;;;24.85;10.68;;;;;;;2.16;82.57;97797.38;5113845;28;20052;-64
2021/11/27 07:57:44;;;;;;;26.85;9.93;;;;;;;2.11;82.10;97803.25;5114061;28;20138;-64
2021/11/27 08:00:17;;;;;;;31.52;13.13;;;;;;;2.18;83.00;97795.72;5113710;28;20067;-63
2021/11/27 08:02:51;;;;;;;33.17;12.10;;;;;;;2.25;82.31;97802.44;5113668;28;20043;-67
2021/11/27 08:05:23;;;;;;;29.25;12.45;;;;;;;2.29;82.46;97781.47;5113980;28;20489;-64
2021/11/27 08:07:56;;;;;;;31.50;12.93;;;;;;;2.38;82.09;97806.66;5113663;28;20105;-64
2021/11/27 08:10:25;;;;;;;34.50;12.85;;;;;;;2.50;82.85;97796.59;5113268;28;20150;-64
2021/11/27 08:12:56;;;;;;;30.15;11.77;;;;;;;2.61;82.28;97794.94;5100207;28;20119;-67
2021/11/27 08:15:25;;;;;;;32.15;12.18;;;;;;;2.58;82.83;97789.88;5093186;28;20054;-65
2021/11/27 08:17:56;;;;;;;;;;;;;;;2.58;81.85;97787.38;5093628;28;20131;-67
2021/11/27 08:20:25;;;;;;;28.08;11.82;;;;;;;2.58;82.12;97784.00;5093209;28;19920;-68
2021/11/27 08:22:58;;;;;;;35.17;13.77;;;;;;;2.72;82.09;97783.16;5093094;28;20047;-66
2021/11/27 08:25:30;;;;;;;36.78;14.93;;;;;;;2.78;82.39;97786.53;5093994;28;20040;-64
2021/11/27 08:28:03;;;;;;;30.27;12.80;;;;;;;2.85;82.26;97790.72;5093110;28;20056;-63
2021/11/27 08:30:33;;;;;;;31.38;12.07;;;;;;;2.89;81.85;97794.91;5091923;28;20394;-65
2021/11/27 08:33:07;;;;;;;33.58;12.30;;;;;;;2.90;82.21;97806.66;5093098;28;20132;-66
2021/11/27 08:35:37;;;;;;;28.30;11.90;;;;;;;3.00;82.27;97808.34;5093486;28;20052;-65
2021/11/27 08:38:09;;;;;;;32.20;12.98;;;;;;;3.09;81.85;97810.84;5093822;28;20093;-66
2021/11/27 08:40:38;;;;;;;29.35;11.50;;;;;;;3.15;81.65;97808.28;5096967;28;20562;-64
2021/11/27 08:43:10;;;;;;;29.05;11.85;;;;;;;3.10;82.21;97809.97;5096847;28;20468;-64
2021/11/27 08:45:40;;;;;;;30.35;13.02;;;;;;;2.96;81.78;97786.50;5096667;28;20131;-65
2021/11/27 08:48:11;;;;;;;26.92;12.57;;;;;;;3.23;81.79;97811.66;5096885;28;20092;-64
2021/11/27 08:50:41;;;;;;;26.35;11.50;;;;;;;3.30;81.38;97814.16;5096636;28;20443;-66
2021/11/27 08:53:13;;;;;;;29.52;12.65;;;;;;;3.30;81.66;97805.75;5096718;28;20048;-64
2021/11/27 08:55:46;;;;;;;32.08;13.45;;;;;;;3.18;81.27;97803.25;5096486;28;20126;-65
2021/11/27 08:58:18;;;;;;;28.00;13.23;;;;;;;3.29;81.35;97802.38;5096365;28;20052;-67
2021/11/27 09:00:47;;;;;;;31.77;13.75;;;;;;;3.31;81.21;97794.84;5096657;28;20052;-66
2021/11/27 09:03:18;;;;;;;31.58;13.23;;;;;;;3.37;80.77;97809.94;5096133;28;20047;-65
2021/11/27 09:05:50;;;;;;;29.13;13.27;;;;;;;3.38;81.61;97801.53;5096570;28;20485;-67
2021/11/27 09:08:23;;;;;;;29.65;14.55;;;;;;;3.43;81.62;97797.31;5096790;28;20075;-67
2021/11/27 09:10:56;;;;;;;30.00;12.07;;;;;;;3.49;81.32;97789.72;5096381;28;20048;-65
2021/11/27 09:13:29;;;;;;;30.20;12.43;;;;;;;3.59;80.68;97786.34;5096103;28;20052;-65
2021/11/27 09:16:02;;;;;;;27.67;11.55;;;;;;;3.72;81.25;97787.94;5096073;28;20047;-64
2021/11/27 09:18:55;;;;;;;29.13;11.32;;;;;;;3.85;80.75;97776.97;5096199;28;20102;-65
2021/11/27 09:21:26;;;;;;;29.17;11.68;;;;;;;3.78;80.73;97787.94;5096210;28;20044;-64
2021/11/27 09:23:56;;;;;;;27.55;11.80;;;;;;;3.68;80.88;97790.50;5096159;28;20044;-68
2021/11/27 09:26:25;;;;;;;26.58;11.30;;;;;;;3.60;80.39;97785.47;5095184;28;20048;-67
2021/11/27 09:28:55;;;;;;;25.08;10.80;;;;;;;3.62;80.65;97780.44;5095694;28;20036;-67
2021/11/27 09:31:24;;;;;;;24.20;10.30;;;;;;;3.78;81.11;97792.97;5095981;28;20513;-65
2021/11/27 09:33:58;;;;;;;28.92;11.60;;;;;;;3.89;80.42;97788.72;5095697;28;20037;-67
2021/11/27 09:36:33;;;;;;;23.77;11.93;;;;;;;3.99;80.45;97787.81;5095980;28;20070;-66
2021/11/27 09:39:07;;;;;;;27.80;11.65;;;;;;;4.00;80.54;97798.75;5095607;28;20052;-64
2021/11/27 09:41:41;;;;;;;27.05;10.52;;;;;;;4.02;80.71;97804.63;5094544;28;20444;-64
2021/11/27 09:44:17;;;;;;;27.35;11.90;;;;;;;4.10;80.09;97807.13;5096034;28;20047;-64
2021/11/27 09:46:48;;;;;;;30.88;11.38;;;;;;;4.13;79.72;97809.63;5095748;28;20450;-64
2021/11/27 09:49:22;;;;;;;25.83;10.60;;;;;;;3.79;80.19;97814.00;5095318;28;20406;-65
2021/11/27 09:51:53;;;;;;;28.15;11.00;;;;;;;3.62;80.01;97813.22;5095972;28;20077;-64
2021/11/27 09:54:24;;;;;;;21.33;10.68;;;;;;;3.68;79.80;97796.38;5094964;28;20048;-64
2021/11/27 09:56:55;;;;;;;26.90;11.43;;;;;;;3.74;80.22;97788.78;5095337;28;20067;-67
2021/11/27 09:59:27;;;;;;;25.35;10.48;;;;;;;3.83;79.59;97786.22;5095836;28;20493;-64
2021/11/27 10:01:57;;;;;;;27.25;11.15;;;;;;;3.86;79.74;97796.28;5095075;28;20494;-64
2021/11/27 10:04:34;;;;;;;23.17;10.00;;;;;;;3.95;80.03;97801.31;5095345;28;20054;-67
2021/11/27 10:07:07;;;;;;;26.23;10.73;;;;;;;4.03;79.98;97779.38;5095018;28;20048;-64
2021/11/27 10:09:40;;;;;;;24.45;10.57;;;;;;;4.01;79.82;97786.13;5094914;28;20036;-65
2021/11/27 10:12:11;;;;;;;29.08;12.55;;;;;;;3.97;79.75;97774.38;5095560;28;20389;-67
2021/11/27 10:14:42;;;;;;;27.20;10.82;;;;;;;3.96;79.36;97777.75;5094735;28;20482;-66
2021/11/27 10:17:14;;;;;;;23.05;11.05;;;;;;;4.00;78.92;97787.00;5093631;28;20040;-67
2021/11/27 10:19:51;;;;;;;30.30;11.52;;;;;;;3.94;78.91;97794.56;5094989;28;20487;-64
2021/11/27 10:22:23;;;;;;;24.70;10.93;;;;;;;3.89;78.46;97796.28;5094631;28;20044;-64
2021/11/27 10:24:52;;;;;;;27.70;11.50;;;;;;;3.73;79.02;97794.69;5094643;28;20050;-64
2021/11/27 10:27:25;;;;;;;27.83;12.13;;;;;;;3.77;78.78;97795.50;5095211;28;20040;-65
2021/11/27 10:30:04;;;;;;;27.90;11.85;;;;;;;3.78;79.37;97803.06;5094968;28;20047;-65
2021/11/27 10:32:37;;;;;;;27.90;11.25;;;;;;;3.75;79.57;97798.03;5094601;28;20040;-66
2021/11/27 10:35:10;;;;;;;22.83;10.27;;;;;;;3.79;78.94;97807.25;5094809;28;20059;-67
2021/11/27 10:37:41;;;;;;;22.00;9.57;;;;;;;3.89;79.45;97811.41;5094838;28;20401;-65
2021/11/27 10:40:12;;;;;;;27.35;10.60;;;;;;;3.85;79.55;97809.75;5094782;28;20467;-64
2021/11/27 10:42:47;;;;;;;23.73;10.45;;;;;;;3.89;78.73;97801.31;5094752;28;20040;-65
2021/11/27 10:45:20;;;;;;;27.88;11.50;;;;;;;3.79;78.76;97799.69;5094238;28;20044;-65
2021/11/27 10:47:52;;;;;;;25.70;10.68;;;;;;;3.60;78.96;97800.59;5094254;28;20097;-65
2021/11/27 10:50:25;;;;;;;21.88;9.90;;;;;;;3.53;78.68;97801.47;5094544;28;20052;-65
2021/11/27 10:52:55;;;;;;;26.90;10.88;;;;;;;3.50;79.59;97796.47;5094422;28;20040;-65
2021/11/27 10:55:25;;;;;;;;;;;;;;;3.52;79.32;97794.78;5093610;28;20044;-64
2021/11/27 10:58:01;;;;;;;26.25;9.75;;;;;;;3.51;78.97;97798.13;5094102;28;19927;-66
2021/11/27 11:00:35;;;;;;;23.52;11.40;;;;;;;3.57;78.88;97795.59;5093847;28;20044;-67
2021/11/27 11:03:25;;;;;;;29.40;11.07;;;;;;;3.49;79.30;97798.97;5094186;28;20080;-65
2021/11/27 11:06:00;;;;;;;;;;;;;;;3.50;79.36;97800.66;5094342;28;20036;-64
2021/11/27 11:08:35;;;;;;;23.05;10.95;;;;;;;3.71;79.02;97796.38;5094009;28;19920;-64
2021/11/27 11:11:28;;;;;;;22.42;10.57;;;;;;;3.79;79.42;97799.69;5094091;28;20063;-66
2021/11/27 11:13:59;;;;;;;26.10;12.18;;;;;;;3.83;79.19;97781.19;5094357;28;20485;-64
2021/11/27 11:16:31;;;;;;;26.58;10.15;;;;;;;3.88;79.38;97774.44;5093983;28;20066;-65
2021/11/27 11:19:15;;;;;;;34.20;11.02;;;;;;;3.97;78.86;97769.34;5093518;28;20056;-65
2021/11/27 11:22:09;;;;;;;25.77;10.70;;;;;;;4.08;78.62;97776.81;5093934;28;20040;-68
2021/11/27 11:24:44;;;;;;;22.70;10.80;;;;;;;4.17;78.68;97781.00;5093474;28;20497;-67
2021/11/27 11:27:29;;;;;;;24.20;10.00;;;;;;;4.17;78.26;97796.13;5093653;28;20080;-66
2021/11/27 11:30:01;;;;;;;23.95;10.25;;;;;;;4.18;78.93;97792.75;5093928;28;20397;-67
2021/11/27 11:32:32;;;;;;;28.20;11.55;;;;;;;3.99;78.56;97792.88;5093991;28;20056;-67
2021/11/27 11:35:05;;;;;;;28.35;11.15;;;;;;;4.10;78.43;97790.31;5093683;28;20044;-67
2021/11/27 11:37:38;;;;;;;25.30;10.80;;;;;;;4.11;78.16;97786.06;5093559;28;20048;-67
2021/11/27 11:40:12;;;;;;;25.00;10.95;;;;;;;4.06;78.71;97781.88;5093556;28;20040;-66
2021/11/27 11:42:47;;;;;;;24.02;10.75;;;;;;;3.87;78.72;97761.81;5093423;28;20052;-66
2021/11/27 11:45:16;;;;;;;25.52;10.70;;;;;;;3.99;78.34;97772.69;5093541;28;20512;-66
2021/11/27 11:47:49;;;;;;;26.48;11.07;;;;;;;3.99;78.77;97771.84;5093506;28;20147;-67
2021/11/27 11:50:43;;;;;;;29.17;14.00;;;;;;;4.08;78.85;97780.19;5093358;28;20490;-66
2021/11/27 11:53:31;;;;;;;23.73;10.38;;;;;;;4.05;78.58;97776.88;5093477;28;20040;-66
2021/11/27 11:56:04;;;;;;;24.20;11.45;;;;;;;4.03;78.55;97751.63;5093723;28;20079;-66
2021/11/27 11:58:37;;;;;;;27.52;11.60;;;;;;;3.99;78.44;97760.06;5093356;28;20150;-66
2021/11/27 12:01:17;;;;;;;28.65;12.52;;;;;;;3.98;78.28;97760.09;5093455;28;20071;-67
2021/11/27 12:03:49;;;;;;;28.58;13.02;;;;;;;4.07;78.92;97773.50;5093756;28;20048;-65